createdAt,value
2022-11-30T00:00:27.147Z,3.40
2022-11-30T00:03:35.289Z,3.31
2022-11-30T00:06:45.520Z,2.97
2022-11-30T00:09:53.369Z,2.97
2022-11-30T00:13:00.983Z,2.78
2022-11-30T00:16:07.987Z,2.62
2022-11-30T00:19:15.244Z,2.82
2022-11-30T00:22:23.521Z,2.70
2022-11-30T00:25:30.386Z,3.14
2022-11-30T00:28:38.548Z,3.32
2022-11-30T00:31:45.494Z,3.33
2022-11-30T00:34:53.219Z,3.05
2022-11-30T00:38:03.704Z,3.13
2022-11-30T00:41:10.911Z,2.90
2022-11-30T00:44:18.198Z,2.81
2022-11-30T00:47:24.978Z,3.28
2022-11-30T00:50:31.516Z,3.45
2022-11-30T00:53:38.623Z,3.56
2022-11-30T00:56:45.153Z,3.51
2022-11-30T00:59:52.568Z,3.59
2022-11-30T01:03:00.008Z,3.74
2022-11-30T01:06:10.434Z,3.95
2022-11-30T01:09:16.907Z,4.01
2022-11-30T01:12:24.540Z,4.03
2022-11-30T01:15:31.612Z,3.66
2022-11-30T01:18:39.312Z,3.64
2022-11-30T01:21:45.936Z,3.14
2022-11-30T01:24:55.053Z,3.57
2022-11-30T01:28:02.686Z,3.66
2022-11-30T01:31:12.729Z,3.66
2022-11-30T01:34:21.244Z,3.71
2022-11-30T01:37:33.010Z,3.84
2022-11-30T01:40:39.768Z,4.02
2022-11-30T01:43:51.683Z,4.16
2022-11-30T01:47:03.478Z,4.20
2022-11-30T01:50:25.692Z,4.26
2022-11-30T01:53:33.117Z,4.27
2022-11-30T01:56:49.054Z,4.24
2022-11-30T02:00:02.163Z,4.19
2022-11-30T02:03:15.441Z,3.75
2022-11-30T02:06:24.869Z,3.95
2022-11-30T02:09:36.611Z,4.24
2022-11-30T02:13:16.369Z,4.34
2022-11-30T02:16:41.149Z,3.96
2022-11-30T02:20:24.803Z,4.12
2022-11-30T02:23:57.673Z,4.14
2022-11-30T02:27:27.299Z,4.37
2022-11-30T02:30:38.158Z,4.47
2022-11-30T02:33:46.483Z,4.10
2022-11-30T02:36:54.936Z,4.28
2022-11-30T02:40:01.507Z,4.44
2022-11-30T02:43:08.084Z,4.44
2022-11-30T02:46:32.135Z,4.39
2022-11-30T02:50:01.462Z,4.45
2022-11-30T02:53:11.141Z,4.38
2022-11-30T02:56:21.809Z,4.48
2022-11-30T02:59:28.747Z,4.47
2022-11-30T03:02:35.306Z,4.39
2022-11-30T03:05:41.833Z,4.46
2022-11-30T03:08:48.914Z,4.45
2022-11-30T03:11:55.411Z,4.07
2022-11-30T03:15:03.262Z,3.85
2022-11-30T03:18:11.097Z,4.26
2022-11-30T03:21:18.551Z,4.12
2022-11-30T03:24:26.326Z,4.23
2022-11-30T03:27:33.955Z,4.35
2022-11-30T03:30:43.416Z,4.29
2022-11-30T03:33:50.167Z,4.21
2022-11-30T03:36:56.687Z,4.02
2022-11-30T03:40:03.867Z,4.30
2022-11-30T03:43:11.234Z,4.36
2022-11-30T03:46:18.989Z,4.20
2022-11-30T03:49:27.191Z,4.39
2022-11-30T03:52:34.526Z,4.41
2022-11-30T03:55:41.557Z,4.55
2022-11-30T03:58:48.375Z,4.53
2022-11-30T04:01:55.111Z,4.54
2022-11-30T04:05:02.211Z,4.50
2022-11-30T04:08:09.240Z,4.62
2022-11-30T04:11:17.590Z,4.69
2022-11-30T04:14:24.454Z,4.77
2022-11-30T04:17:32.047Z,4.76
2022-11-30T04:20:40.780Z,4.70
2022-11-30T04:23:48.093Z,4.80
2022-11-30T04:26:55.061Z,4.75
2022-11-30T04:30:01.944Z,4.77
2022-11-30T04:33:09.667Z,4.82
2022-11-30T04:36:20.799Z,4.79
2022-11-30T04:39:28.735Z,4.76
2022-11-30T04:42:35.599Z,4.85
2022-11-30T04:45:42.577Z,4.85
2022-11-30T04:48:49.010Z,4.81
2022-11-30T04:51:55.140Z,4.85
2022-11-30T04:55:02.062Z,4.87
2022-11-30T04:58:09.987Z,4.91
2022-11-30T05:01:16.242Z,4.85
2022-11-30T05:04:22.365Z,4.89
2022-11-30T05:07:29.616Z,4.91
2022-11-30T05:10:36.325Z,4.56
2022-11-30T05:13:42.834Z,4.90
2022-11-30T05:16:49.253Z,4.82
2022-11-30T05:19:55.621Z,4.85
2022-11-30T05:23:01.967Z,4.91
2022-11-30T05:26:09.066Z,5.01
2022-11-30T05:29:15.102Z,5.02
2022-11-30T05:32:20.963Z,4.92
2022-11-30T05:35:27.236Z,4.82
2022-11-30T05:38:33.636Z,4.97
2022-11-30T05:41:40.041Z,5.02
2022-11-30T05:44:48.558Z,4.87
2022-11-30T05:47:54.884Z,4.96
2022-11-30T05:51:21.456Z,4.90
2022-11-30T05:54:27.196Z,4.75
2022-11-30T05:57:38.714Z,4.56
2022-11-30T06:00:44.886Z,4.67
2022-11-30T06:03:51.552Z,4.52
2022-11-30T06:06:58.302Z,4.49
2022-11-30T06:10:06.091Z,4.53
2022-11-30T06:13:13.721Z,4.71
2022-11-30T06:16:20.208Z,4.82
2022-11-30T06:19:26.052Z,4.67
2022-11-30T06:22:34.726Z,4.70
2022-11-30T06:25:41.486Z,4.79
2022-11-30T06:28:49.785Z,4.65
2022-11-30T06:31:55.869Z,4.60
2022-11-30T06:35:02.259Z,4.65
2022-11-30T06:38:08.405Z,4.74
2022-11-30T06:41:15.255Z,4.78
2022-11-30T06:44:24.071Z,4.77
2022-11-30T06:47:34.774Z,4.93
2022-11-30T06:50:46.865Z,4.98
2022-11-30T06:53:55.771Z,4.97
2022-11-30T06:57:01.667Z,5.02
2022-11-30T07:00:08.748Z,5.02
2022-11-30T07:03:14.423Z,4.90
2022-11-30T07:06:20.355Z,4.97
2022-11-30T07:09:26.174Z,4.99
2022-11-30T07:12:34.789Z,5.00
2022-11-30T07:15:42.175Z,5.01
2022-11-30T07:18:47.734Z,5.05
2022-11-30T07:21:53.309Z,5.04
2022-11-30T07:25:17.902Z,4.96
2022-11-30T07:28:23.583Z,4.95
2022-11-30T07:31:32.103Z,5.12
2022-11-30T07:34:38.468Z,4.97
2022-11-30T07:37:45.243Z,5.10
2022-11-30T07:40:53.325Z,4.94
2022-11-30T07:44:00.206Z,5.09
2022-11-30T07:47:06.491Z,5.12
2022-11-30T07:50:12.569Z,5.24
2022-11-30T07:53:19.093Z,5.03
2022-11-30T07:56:25.985Z,5.00
2022-11-30T07:59:32.628Z,5.09
2022-11-30T08:02:39.140Z,5.16
2022-11-30T08:05:45.608Z,4.83
2022-11-30T08:08:54.157Z,5.05
2022-11-30T08:12:00.673Z,5.24
2022-11-30T08:15:28.989Z,5.42
2022-11-30T08:18:35.205Z,5.32
2022-11-30T08:21:40.953Z,5.40
2022-11-30T08:24:47.255Z,5.49
2022-11-30T08:27:53.320Z,5.38
2022-11-30T08:31:05.653Z,5.31
2022-11-30T08:34:13.986Z,5.60
2022-11-30T08:37:20.657Z,5.63
2022-11-30T08:40:28.462Z,5.82
2022-11-30T08:43:34.422Z,5.69
2022-11-30T08:46:51.623Z,5.67
2022-11-30T08:49:58.959Z,5.71
2022-11-30T08:53:06.505Z,5.69
2022-11-30T08:56:20.235Z,6.04
2022-11-30T08:59:27.136Z,5.92
2022-11-30T09:02:34.291Z,5.95
2022-11-30T09:05:40.523Z,6.33
2022-11-30T09:08:48.411Z,6.48
2022-11-30T09:11:54.422Z,6.43
2022-11-30T09:15:00.579Z,6.40
2022-11-30T09:18:06.922Z,6.70
2022-11-30T09:21:15.731Z,6.73
2022-11-30T09:24:22.405Z,6.83
2022-11-30T09:27:30.976Z,6.92
2022-11-30T09:30:37.047Z,7.15
2022-11-30T09:33:44.011Z,6.87
2022-11-30T09:36:50.057Z,7.12
2022-11-30T09:39:57.289Z,7.18
2022-11-30T09:43:23.307Z,7.23
2022-11-30T09:46:38.860Z,7.36
2022-11-30T09:49:46.801Z,7.42
2022-11-30T09:53:01.669Z,7.52
2022-11-30T09:56:22.145Z,7.55
2022-11-30T09:59:34.126Z,7.52
2022-11-30T10:02:40.854Z,7.58
2022-11-30T10:06:01.389Z,7.68
2022-11-30T10:09:06.866Z,7.79
2022-11-30T10:12:25.726Z,7.79
2022-11-30T10:15:57.893Z,7.93
2022-11-30T10:19:29.976Z,7.95
2022-11-30T10:23:02.674Z,7.89
2022-11-30T10:26:25.551Z,7.96
2022-11-30T10:29:40.004Z,8.11
2022-11-30T10:32:50.627Z,8.34
2022-11-30T10:36:04.675Z,8.25
2022-11-30T10:39:38.882Z,8.33
2022-11-30T10:43:19.574Z,8.39
2022-11-30T10:46:32.464Z,8.25
2022-11-30T10:49:43.106Z,8.27
2022-11-30T10:52:53.889Z,8.45
2022-11-30T10:56:05.031Z,8.44
2022-11-30T10:59:31.981Z,8.48
2022-11-30T11:02:46.584Z,8.51
2022-11-30T11:06:20.037Z,8.54
2022-11-30T11:09:28.689Z,8.58
2022-11-30T11:12:34.334Z,8.53
2022-11-30T11:15:39.835Z,8.48
2022-11-30T11:19:03.722Z,8.65
2022-11-30T11:22:21.436Z,8.55
2022-11-30T11:25:38.107Z,8.43
2022-11-30T11:28:50.633Z,8.53
2022-11-30T11:32:27.946Z,8.54
2022-11-30T11:35:46.841Z,8.42
2022-11-30T11:38:52.749Z,8.49
2022-11-30T11:41:58.698Z,8.60
2022-11-30T11:45:06.664Z,8.57
2022-11-30T11:48:58.020Z,8.42
2022-11-30T11:52:13.800Z,8.38
2022-11-30T11:55:21.733Z,8.40
2022-11-30T11:58:40.918Z,8.38
2022-11-30T12:02:01.922Z,8.44
2022-11-30T12:05:16.379Z,8.46
2022-11-30T12:08:42.176Z,8.50
2022-11-30T12:11:49.549Z,8.67
2022-11-30T12:14:57.230Z,8.93
2022-11-30T12:18:24.570Z,9.00
2022-11-30T12:21:33.195Z,8.77
2022-11-30T12:25:00.089Z,8.90
2022-11-30T12:28:48.589Z,8.93
2022-11-30T12:32:13.781Z,8.99
2022-11-30T12:35:19.318Z,8.79
2022-11-30T12:38:50.421Z,8.81
2022-11-30T12:42:03.457Z,8.88
2022-11-30T12:45:19.695Z,8.86
2022-11-30T12:48:39.699Z,8.93
2022-11-30T12:51:51.355Z,8.90
2022-11-30T12:55:08.950Z,8.93
2022-11-30T12:58:22.701Z,8.81
2022-11-30T13:01:44.287Z,8.76
2022-11-30T13:04:58.732Z,8.82
2022-11-30T13:08:27.611Z,8.83
2022-11-30T13:11:48.196Z,8.90
2022-11-30T13:15:01.642Z,8.82
2022-11-30T13:18:11.560Z,8.77
2022-11-30T13:21:25.140Z,8.71
2022-11-30T13:24:40.192Z,8.86
2022-11-30T13:27:58.139Z,8.89
2022-11-30T13:31:26.144Z,8.79
2022-11-30T13:34:35.653Z,8.81
2022-11-30T13:37:41.242Z,8.83
2022-11-30T13:41:03.120Z,8.93
2022-11-30T13:44:23.355Z,8.89
2022-11-30T13:47:34.939Z,8.80
2022-11-30T13:50:41.696Z,8.73
2022-11-30T13:53:49.823Z,8.62
2022-11-30T13:56:55.765Z,8.66
2022-11-30T14:00:22.682Z,8.54
2022-11-30T14:03:32.821Z,8.53
2022-11-30T14:06:44.297Z,8.48
2022-11-30T14:09:58.345Z,8.49
2022-11-30T14:13:26.748Z,8.51
2022-11-30T14:16:32.728Z,8.46
2022-11-30T14:19:38.801Z,8.38
2022-11-30T14:22:45.316Z,8.32
2022-11-30T14:25:55.200Z,8.32
2022-11-30T14:29:08.391Z,8.27
2022-11-30T14:32:45.515Z,8.20
2022-11-30T14:35:56.864Z,8.24
2022-11-30T14:39:02.856Z,8.18
2022-11-30T14:42:21.305Z,8.16
2022-11-30T14:45:33.720Z,8.20
2022-11-30T14:48:39.408Z,8.16
2022-11-30T14:51:58.245Z,8.19
2022-11-30T14:55:24.434Z,8.22
2022-11-30T14:58:50.006Z,8.23
2022-11-30T15:02:02.136Z,8.03
2022-11-30T15:05:14.953Z,7.97
2022-11-30T15:08:21.535Z,7.92
2022-11-30T15:11:28.746Z,7.93
2022-11-30T15:14:34.849Z,8.00
2022-11-30T15:17:52.777Z,8.05
2022-11-30T15:21:03.846Z,8.08
2022-11-30T15:24:10.041Z,7.98
2022-11-30T15:27:23.599Z,7.96
2022-11-30T15:30:29.383Z,7.92
2022-11-30T15:33:42.340Z,7.91
2022-11-30T15:36:48.340Z,7.97
2022-11-30T15:40:00.330Z,7.98
2022-11-30T15:43:06.313Z,7.93
2022-11-30T15:46:45.792Z,7.92
2022-11-30T15:49:57.126Z,7.82
2022-11-30T15:53:28.728Z,7.84
2022-11-30T15:56:35.231Z,7.82
2022-11-30T15:59:40.847Z,7.83
2022-11-30T16:02:46.677Z,7.86
2022-11-30T16:05:57.547Z,7.81
2022-11-30T16:09:19.601Z,7.81
2022-11-30T16:12:30.461Z,7.78
2022-11-30T16:15:38.021Z,7.69
2022-11-30T16:18:43.750Z,7.71
2022-11-30T16:21:50.847Z,7.71
2022-11-30T16:24:57.325Z,7.72
2022-11-30T16:28:04.611Z,7.69
2022-11-30T16:31:17.720Z,7.68
2022-11-30T16:34:23.971Z,7.67
2022-11-30T16:37:30.272Z,7.56
2022-11-30T16:40:39.129Z,7.55
2022-11-30T16:43:47.599Z,7.44
2022-11-30T16:46:55.871Z,7.46
2022-11-30T16:50:01.855Z,7.46
2022-11-30T16:53:14.499Z,7.51
2022-11-30T16:56:21.312Z,7.50
2022-11-30T16:59:27.691Z,7.54
2022-11-30T17:02:37.443Z,7.40
2022-11-30T17:05:44.224Z,7.38
2022-11-30T17:08:51.848Z,7.43
2022-11-30T17:11:59.750Z,7.34
2022-11-30T17:15:07.679Z,7.40
2022-11-30T17:18:16.739Z,7.42
2022-11-30T17:21:36.914Z,7.40
2022-11-30T17:24:45.999Z,7.37
2022-11-30T17:27:58.072Z,7.38
2022-11-30T17:31:06.915Z,7.37
2022-11-30T17:34:16.253Z,7.33
2022-11-30T17:37:24.924Z,7.29
2022-11-30T17:40:33.074Z,7.38
2022-11-30T17:43:41.108Z,7.34
2022-11-30T17:46:49.680Z,7.35
2022-11-30T17:49:59.210Z,7.35
2022-11-30T17:53:06.522Z,7.32
2022-11-30T17:56:16.405Z,7.33
2022-11-30T17:59:23.359Z,7.35
2022-11-30T18:02:31.259Z,7.34
2022-11-30T18:05:39.384Z,7.31
2022-11-30T18:08:47.911Z,7.30
2022-11-30T18:11:55.659Z,7.27
2022-11-30T18:15:02.802Z,7.23
2022-11-30T18:18:10.132Z,7.16
2022-11-30T18:21:20.112Z,7.13
2022-11-30T18:24:29.534Z,7.22
2022-11-30T18:27:37.215Z,7.13
2022-11-30T18:30:44.754Z,7.16
2022-11-30T18:34:07.321Z,7.12
2022-11-30T18:37:15.157Z,7.11
2022-11-30T18:40:24.160Z,7.09
2022-11-30T18:43:32.658Z,7.16
2022-11-30T18:46:41.822Z,7.15
2022-11-30T18:49:49.858Z,7.21
2022-11-30T18:52:58.334Z,7.17
2022-11-30T18:56:14.096Z,7.10
2022-11-30T18:59:21.178Z,7.06
2022-11-30T19:02:29.474Z,7.12
2022-11-30T19:05:40.795Z,7.12
2022-11-30T19:08:48.555Z,7.10
2022-11-30T19:11:56.751Z,6.98
2022-11-30T19:15:05.600Z,7.09
2022-11-30T19:18:12.800Z,7.06
2022-11-30T19:21:23.240Z,6.90
2022-11-30T19:24:33.169Z,6.91
2022-11-30T19:27:40.755Z,6.92
2022-11-30T19:31:19.482Z,6.82
2022-11-30T19:34:28.625Z,6.80
2022-11-30T19:37:35.471Z,7.03
2022-11-30T19:40:43.799Z,6.91
2022-11-30T19:44:03.233Z,6.95
2022-11-30T19:47:11.902Z,6.87
2022-11-30T19:50:20.734Z,6.96
2022-11-30T19:53:29.975Z,7.00
2022-11-30T19:56:39.916Z,7.02
2022-11-30T19:59:48.059Z,7.02
2022-11-30T20:02:55.973Z,6.89
2022-11-30T20:06:04.092Z,6.96
2022-11-30T20:09:12.486Z,6.83
2022-11-30T20:12:20.507Z,6.84
2022-11-30T20:15:30.248Z,6.81
2022-11-30T20:18:40.094Z,6.67
2022-11-30T20:21:50.445Z,6.73
2022-11-30T20:24:57.684Z,6.79
2022-11-30T20:28:09.651Z,6.85
2022-11-30T20:31:22.287Z,6.76
2022-11-30T20:34:34.636Z,6.83
2022-11-30T20:37:43.748Z,6.87
2022-11-30T20:40:51.569Z,6.92
2022-11-30T20:43:59.286Z,6.91
2022-11-30T20:47:07.590Z,6.80
2022-11-30T20:50:14.967Z,6.74
2022-11-30T20:53:21.830Z,6.78
2022-11-30T20:56:30.176Z,6.78
2022-11-30T20:59:37.115Z,6.72
2022-11-30T21:02:44.570Z,6.81
2022-11-30T21:05:51.274Z,6.82
2022-11-30T21:08:59.237Z,6.79
2022-11-30T21:12:06.279Z,6.76
2022-11-30T21:15:13.715Z,6.79
2022-11-30T21:18:21.647Z,6.86
2022-11-30T21:21:36.556Z,6.86
2022-11-30T21:24:44.126Z,6.80
2022-11-30T21:27:53.575Z,6.77
2022-11-30T21:31:04.187Z,6.77
2022-11-30T21:34:12.457Z,6.70
2022-11-30T21:37:20.257Z,6.72
2022-11-30T21:40:28.007Z,6.54
2022-11-30T21:43:36.827Z,6.55
2022-11-30T21:46:46.260Z,6.65
2022-11-30T21:49:53.800Z,6.57
2022-11-30T21:53:01.393Z,6.59
2022-11-30T21:56:14.271Z,6.66
2022-11-30T21:59:21.281Z,6.63
2022-11-30T22:02:29.129Z,6.60
2022-11-30T22:05:36.624Z,6.54
2022-11-30T22:08:44.378Z,6.55
2022-11-30T22:11:51.406Z,6.49
2022-11-30T22:14:59.682Z,6.47
2022-11-30T22:18:06.855Z,6.44
2022-11-30T22:21:21.982Z,6.37
2022-11-30T22:24:29.477Z,6.31
2022-11-30T22:27:39.506Z,6.42
2022-11-30T22:30:50.242Z,6.38
2022-11-30T22:33:58.233Z,6.34
2022-11-30T22:37:05.737Z,6.29
2022-11-30T22:40:14.020Z,6.18
2022-11-30T22:43:21.666Z,6.32
2022-11-30T22:46:31.959Z,6.27
2022-11-30T22:49:38.368Z,6.35
2022-11-30T22:53:02.398Z,6.43
2022-11-30T22:56:15.473Z,6.49
2022-11-30T22:59:23.573Z,6.50
2022-11-30T23:02:30.245Z,6.34
2022-11-30T23:05:36.643Z,6.26
2022-11-30T23:08:44.460Z,6.24
2022-11-30T23:11:52.311Z,6.30
2022-11-30T23:14:58.713Z,6.37
2022-11-30T23:18:05.442Z,6.25
2022-11-30T23:21:18.215Z,6.12
2022-11-30T23:24:25.234Z,6.10
2022-11-30T23:27:31.924Z,6.20
2022-11-30T23:30:38.081Z,6.22
2022-11-30T23:33:44.709Z,6.26
2022-11-30T23:36:51.795Z,6.24
2022-11-30T23:39:58.586Z,6.10
2022-11-30T23:43:06.706Z,6.06
2022-11-30T23:46:13.057Z,6.10
2022-11-30T23:49:19.509Z,6.18
2022-11-30T23:52:25.375Z,6.25
2022-11-30T23:55:32.319Z,6.19
2022-11-30T23:58:40.133Z,6.08
